Time;durP1;ratioP1;P1;durP2;ratioP2;P2;SDS_P1;SDS_P2;PMS_P1;PMS_P2;Temp;Humidity;BMP_temperature;BMP_pressure;BME280_temperature;BME280_humidity;BME280_pressure;Samples;Min_cycle;Max_cycle;Signal;HPM_P1;HPM_P2
2024/01/29 00:00:25;;;;;;;3.22;2.53;;;6.50;82.10;;;;;;4954228;28;20053;-82
2024/01/29 00:02:51;;;;;;;2.92;2.50;;;6.50;82.10;;;;;;4973232;28;20058;-82
2024/01/29 00:05:17;;;;;;;4.13;2.92;;;6.50;82.10;;;;;;4984579;28;20085;-82
2024/01/29 00:07:42;;;;;;;3.28;2.50;;;6.50;82.20;;;;;;4973798;28;20028;-92
2024/01/29 00:10:08;;;;;;;3.25;2.63;;;6.50;82.20;;;;;;4965452;28;20030;-82
2024/01/29 00:12:34;;;;;;;2.85;2.58;;;6.50;82.20;;;;;;4955421;28;20134;-82
2024/01/29 00:15:01;;;;;;;3.83;2.65;;;6.50;82.20;;;;;;4953903;28;20030;-82
2024/01/29 00:17:27;;;;;;;2.50;2.28;;;6.50;82.20;;;;;;4952241;28;20035;-82
2024/01/29 00:19:52;;;;;;;3.38;2.55;;;6.40;82.20;;;;;;4952957;28;20030;-94
2024/01/29 00:22:18;;;;;;;3.05;2.75;;;6.50;82.20;;;;;;4949194;28;20707;-82
2024/01/29 00:24:44;;;;;;;3.15;2.50;;;6.40;82.10;;;;;;4966281;28;20027;-78
2024/01/29 00:27:10;;;;;;;3.03;2.60;;;6.40;82.10;;;;;;4963505;28;20122;-82
2024/01/29 00:29:35;;;;;;;3.22;2.65;;;6.40;82.10;;;;;;4954716;28;20050;-82
2024/01/29 00:32:01;;;;;;;3.08;2.55;;;6.40;82.10;;;;;;4970410;28;20466;-94
2024/01/29 00:34:27;;;;;;;3.42;2.45;;;6.40;82.10;;;;;;4959602;28;20104;-77
2024/01/29 00:36:52;;;;;;;4.47;2.70;;;6.40;82.10;;;;;;4970251;28;20023;-77
2024/01/29 00:39:19;;;;;;;2.78;2.33;;;6.40;82.10;;;;;;4971913;28;20044;-83
2024/01/29 00:41:44;;;;;;;3.95;2.70;;;6.40;82.10;;;;;;4972890;28;20402;-91
2024/01/29 00:44:10;;;;;;;3.63;2.67;;;6.40;82.10;;;;;;4960071;28;20054;-94
2024/01/29 00:46:39;;;;;;;2.70;2.15;;;6.40;82.20;;;;;;4972794;28;20034;-82
2024/01/29 00:49:05;;;;;;;3.47;2.55;;;6.40;82.10;;;;;;4955820;28;20022;-81
2024/01/29 00:51:31;;;;;;;3.40;2.72;;;6.30;82.10;;;;;;4957072;28;20509;-82
2024/01/29 00:53:56;;;;;;;3.05;2.53;;;6.30;82.10;;;;;;4957546;28;20057;-82
2024/01/29 00:56:22;;;;;;;3.13;2.42;;;6.30;82.10;;;;;;4973860;28;20403;-82
2024/01/29 00:58:48;;;;;;;3.55;2.72;;;6.30;82.10;;;;;;4962194;28;20019;-82
2024/01/29 01:01:14;;;;;;;3.53;2.53;;;6.30;82.10;;;;;;4972682;28;20537;-93
2024/01/29 01:03:40;;;;;;;3.70;2.60;;;6.30;82.10;;;;;;4957275;28;20027;-82
2024/01/29 01:06:06;;;;;;;3.38;2.60;;;6.30;82.10;;;;;;4956022;28;20038;-77
2024/01/29 01:08:31;;;;;;;3.67;2.72;;;6.30;82.10;;;;;;4970513;28;20061;-82
2024/01/29 01:10:57;;;;;;;3.95;2.60;;;6.30;82.10;;;;;;4970895;28;20023;-82
2024/01/29 01:13:23;;;;;;;3.60;2.85;;;6.30;82.10;;;;;;4971055;28;20027;-82
2024/01/29 01:15:49;;;;;;;4.03;2.72;;;6.30;82.10;;;;;;4972675;28;20061;-82
2024/01/29 01:18:14;;;;;;;3.40;2.75;;;6.20;82.10;;;;;;4951366;28;20089;-93
2024/01/29 01:20:41;;;;;;;4.15;2.90;;;6.20;82.10;;;;;;4966127;28;20053;-78
2024/01/29 01:23:06;;;;;;;4.00;2.88;;;6.20;82.10;;;;;;4955395;28;20030;-77
2024/01/29 01:25:32;;;;;;;3.30;2.60;;;6.20;82.00;;;;;;4968616;28;20035;-83
2024/01/29 01:27:58;;;;;;;3.97;3.05;;;6.20;82.10;;;;;;4970809;28;20187;-94
2024/01/29 01:30:25;;;;;;;3.33;2.58;;;6.20;82.10;;;;;;4954767;28;20026;-94
2024/01/29 01:32:50;;;;;;;3.15;2.72;;;6.20;82.00;;;;;;4956447;28;20499;-82
2024/01/29 01:35:19;;;;;;;2.97;2.45;;;6.20;82.10;;;;;;4970970;28;20061;-95
2024/01/29 01:37:45;;;;;;;3.53;2.70;;;6.10;82.00;;;;;;4971582;28;20062;-94
2024/01/29 01:40:11;;;;;;;3.53;2.83;;;6.10;82.00;;;;;;4972531;28;20027;-82
2024/01/29 01:42:41;;;;;;;3.38;2.70;;;6.10;82.10;;;;;;4956750;28;20041;-83
2024/01/29 01:45:07;;;;;;;4.68;3.22;;;6.10;82.00;;;;;;4953921;28;20034;-82
2024/01/29 01:47:34;;;;;;;3.58;2.72;;;6.10;82.10;;;;;;4968773;28;20034;-78
2024/01/29 01:49:59;;;;;;;3.33;2.83;;;6.10;82.00;;;;;;4984183;28;20027;-77
2024/01/29 01:52:25;;;;;;;3.65;3.00;;;6.10;82.10;;;;;;4968468;28;20030;-82
2024/01/29 01:54:53;;;;;;;3.38;2.80;;;6.10;82.10;;;;;;4970359;28;21647;-94
2024/01/29 01:57:19;;;;;;;3.05;2.58;;;6.00;82.10;;;;;;4971338;28;20475;-82
2024/01/29 01:59:45;;;;;;;4.38;3.08;;;6.00;82.10;;;;;;4966658;28;20022;-77
2024/01/29 02:02:11;;;;;;;3.65;2.70;;;6.00;82.10;;;;;;4971505;28;20022;-93
2024/01/29 02:04:37;;;;;;;3.72;2.75;;;6.00;82.10;;;;;;4961079;28;20035;-82
2024/01/29 02:07:03;;;;;;;3.22;2.60;;;6.00;82.00;;;;;;4959176;28;20458;-77
2024/01/29 02:09:29;;;;;;;3.20;2.58;;;6.00;82.10;;;;;;4969827;28;20050;-77
2024/01/29 02:11:55;;;;;;;3.47;2.80;;;5.90;82.10;;;;;;4954720;28;20030;-77
2024/01/29 02:14:21;;;;;;;3.35;2.60;;;5.90;82.10;;;;;;4972034;28;20027;-82
2024/01/29 02:16:47;;;;;;;4.18;2.70;;;5.90;82.10;;;;;;4965482;28;20033;-93
2024/01/29 02:19:16;;;;;;;3.40;2.72;;;5.90;82.10;;;;;;4954322;28;20026;-93
2024/01/29 02:21:43;;;;;;;4.25;2.92;;;5.90;82.10;;;;;;4954828;28;20022;-93
2024/01/29 02:24:09;;;;;;;3.97;2.67;;;5.90;82.10;;;;;;4956231;28;20026;-93
2024/01/29 02:26:35;;;;;;;3.20;2.90;;;5.90;82.10;;;;;;4968813;28;20117;-93
2024/01/29 02:29:03;;;;;;;3.60;2.72;;;5.90;82.10;;;;;;4967576;28;20156;-93
2024/01/29 02:31:29;;;;;;;3.75;3.03;;;5.80;82.10;;;;;;4967656;28;20395;-77
2024/01/29 02:33:55;;;;;;;3.33;2.67;;;5.80;82.10;;;;;;4968058;28;20457;-82
2024/01/29 02:36:20;;;;;;;3.83;2.78;;;5.80;82.10;;;;;;4947658;28;20054;-81
2024/01/29 02:38:46;;;;;;;3.92;2.85;;;5.80;82.80;;;;;;4955974;28;20062;-82
2024/01/29 02:41:12;;;;;;;2.97;2.60;;;5.80;82.10;;;;;;4966912;28;20823;-94
2024/01/29 02:43:38;;;;;;;4.40;3.08;;;5.70;82.10;;;;;;4968103;28;20026;-93
2024/01/29 02:46:04;;;;;;;3.55;3.08;;;5.70;82.20;;;;;;4968269;28;20038;-94
2024/01/29 02:48:29;;;;;;;4.10;2.78;;;5.70;82.10;;;;;;4951005;28;20034;-77
2024/01/29 02:50:55;;;;;;;4.45;3.10;;;5.70;82.20;;;;;;4957345;28;20045;-94
2024/01/29 02:53:23;;;;;;;4.57;3.17;;;5.70;82.20;;;;;;4965639;28;20297;-83
2024/01/29 02:55:49;;;;;;;3.63;2.80;;;5.70;82.30;;;;;;4970182;28;20479;-82
2024/01/29 02:58:15;;;;;;;4.32;2.90;;;5.60;82.20;;;;;;4944602;28;20292;-82
2024/01/29 03:00:43;;;;;;;4.00;2.92;;;5.70;82.90;;;;;;4959121;28;20047;-82
2024/01/29 03:03:11;;;;;;;3.63;2.78;;;5.60;82.20;;;;;;4965602;28;20542;-94
2024/01/29 03:05:36;;;;;;;3.60;2.90;;;5.60;82.30;;;;;;4945762;28;20050;-82
2024/01/29 03:08:02;;;;;;;3.47;2.60;;;5.60;82.20;;;;;;4945798;28;20027;-77
2024/01/29 03:10:28;;;;;;;4.95;2.80;;;5.60;82.30;;;;;;4952154;28;20478;-82
2024/01/29 03:12:54;;;;;;;3.10;2.45;;;5.60;82.30;;;;;;4948985;28;20033;-83
2024/01/29 03:15:20;;;;;;;2.97;2.45;;;5.60;82.30;;;;;;4950378;28;20048;-82
2024/01/29 03:17:46;;;;;;;3.38;2.80;;;5.60;82.20;;;;;;4960759;28;20034;-76
2024/01/29 03:20:12;;;;;;;3.60;3.08;;;5.60;82.30;;;;;;4963224;28;20070;-81
2024/01/29 03:22:37;;;;;;;3.90;2.72;;;5.50;82.20;;;;;;4951155;28;20027;-77
2024/01/29 03:25:04;;;;;;;5.25;3.17;;;5.50;82.30;;;;;;4964795;28;20097;-82
2024/01/29 03:27:29;;;;;;;3.92;3.10;;;5.50;82.30;;;;;;4966394;28;20050;-82
2024/01/29 03:29:55;;;;;;;3.92;2.92;;;5.50;82.30;;;;;;4962546;28;20495;-82
2024/01/29 03:32:21;;;;;;;3.20;2.70;;;5.50;82.30;;;;;;4952361;28;20031;-83
2024/01/29 03:34:47;;;;;;;3.60;2.97;;;5.50;82.30;;;;;;4948981;28;20022;-77
2024/01/29 03:37:12;;;;;;;3.75;3.05;;;5.50;82.30;;;;;;4966214;28;20382;-93
2024/01/29 03:39:39;;;;;;;3.70;2.97;;;5.40;82.30;;;;;;4981218;28;20031;-93
2024/01/29 03:42:05;;;;;;;3.58;2.90;;;5.40;82.30;;;;;;4946352;28;20404;-77
2024/01/29 03:44:31;;;;;;;4.53;3.35;;;5.40;82.30;;;;;;4946927;28;20028;-82
2024/01/29 03:46:56;;;;;;;4.35;3.10;;;5.40;82.30;;;;;;4963426;28;20122;-77
2024/01/29 03:49:22;;;;;;;4.38;3.00;;;5.40;82.30;;;;;;4949767;28;20118;-77
2024/01/29 03:51:48;;;;;;;3.70;2.92;;;5.40;82.30;;;;;;4947991;28;20030;-81
2024/01/29 03:54:14;;;;;;;3.45;2.70;;;5.40;82.90;;;;;;4947092;28;20055;-77
2024/01/29 03:56:39;;;;;;;4.13;3.10;;;5.40;82.30;;;;;;4963104;28;20113;-77
2024/01/29 03:59:10;;;;;;;4.13;3.20;;;5.30;82.30;;;;;;4963661;28;20483;-76
2024/01/29 04:01:37;;;;;;;3.95;2.85;;;5.30;82.30;;;;;;4963542;28;20066;-82
2024/01/29 04:04:03;;;;;;;4.45;3.17;;;5.30;82.20;;;;;;4948890;28;20055;-82
2024/01/29 04:06:29;;;;;;;4.18;3.30;;;5.30;82.30;;;;;;4970434;28;20054;-94
2024/01/29 04:08:55;;;;;;;4.18;3.15;;;5.30;82.30;;;;;;4965181;28;20070;-77
2024/01/29 04:11:20;;;;;;;4.03;3.13;;;5.30;82.30;;;;;;4967392;28;20019;-82
2024/01/29 04:13:46;;;;;;;4.18;3.20;;;5.30;82.30;;;;;;4967820;28;20466;-82
2024/01/29 04:16:12;;;;;;;3.90;3.25;;;5.20;82.20;;;;;;4970035;28;20487;-78
2024/01/29 04:18:39;;;;;;;3.25;2.78;;;5.20;82.30;;;;;;4966529;28;20057;-93
2024/01/29 04:21:08;;;;;;;3.78;2.95;;;5.20;82.30;;;;;;4952770;28;20039;-82
2024/01/29 04:23:35;;;;;;;4.60;3.40;;;5.20;82.30;;;;;;4971888;28;20018;-77
2024/01/29 04:26:01;;;;;;;4.32;3.25;;;5.20;82.30;;;;;;4951812;28;20500;-77
2024/01/29 04:28:27;;;;;;;3.75;2.97;;;5.20;82.30;;;;;;4954637;28;20377;-82
2024/01/29 04:30:53;;;;;;;3.80;3.00;;;5.20;82.30;;;;;;4971854;28;20061;-82
2024/01/29 04:33:19;;;;;;;4.60;3.40;;;5.20;82.30;;;;;;4955749;28;20071;-81
2024/01/29 04:35:45;;;;;;;4.18;3.10;;;5.10;82.30;;;;;;4964970;28;20050;-82
2024/01/29 04:38:11;;;;;;;4.55;3.58;;;5.10;82.30;;;;;;4949894;28;20355;-93
2024/01/29 04:40:39;;;;;;;5.07;3.70;;;5.10;82.30;;;;;;4971040;28;20395;-81
2024/01/29 04:43:05;;;;;;;4.20;3.50;;;5.10;82.30;;;;;;4951144;28;20027;-82
2024/01/29 04:45:31;;;;;;;4.30;3.25;;;5.10;82.30;;;;;;4968777;28;20034;-81
2024/01/29 04:47:57;;;;;;;4.70;3.42;;;5.10;82.30;;;;;;4970751;28;20045;-77
2024/01/29 04:50:22;;;;;;;4.82;3.15;;;5.00;82.30;;;;;;4970136;28;20035;-81
2024/01/29 04:52:49;;;;;;;4.65;3.67;;;5.00;82.20;;;;;;4982709;28;20479;-80
2024/01/29 04:55:14;;;;;;;4.97;3.85;;;5.00;82.30;;;;;;4969548;28;20244;-82
2024/01/29 04:57:41;;;;;;;5.43;4.05;;;5.00;82.30;;;;;;4958925;28;20027;-93
2024/01/29 05:00:08;;;;;;;4.30;3.67;;;5.00;82.30;;;;;;4969778;28;20030;-77
2024/01/29 05:02:35;;;;;;;4.82;3.65;;;5.00;82.30;;;;;;4968193;28;20435;-77
2024/01/29 05:05:01;;;;;;;5.15;3.75;;;5.00;82.40;;;;;;4972433;28;20030;-77
2024/01/29 05:07:27;;;;;;;5.22;3.97;;;5.00;82.30;;;;;;4969076;28;20109;-93
2024/01/29 05:09:54;;;;;;;5.35;4.05;;;5.00;82.30;;;;;;4986343;28;20027;-93
2024/01/29 05:12:19;;;;;;;5.15;3.92;;;5.00;82.30;;;;;;4974049;28;20160;-93
2024/01/29 05:14:45;;;;;;;5.47;3.78;;;5.00;82.30;;;;;;4971677;28;20340;-82
2024/01/29 05:17:14;;;;;;;5.50;3.95;;;5.00;82.30;;;;;;4987040;28;20197;-94
2024/01/29 05:19:43;;;;;;;5.05;3.88;;;5.00;82.30;;;;;;4974703;28;20026;-82
2024/01/29 05:22:09;;;;;;;5.30;4.07;;;4.90;82.20;;;;;;4953672;28;20015;-82
2024/01/29 05:24:35;;;;;;;5.50;4.18;;;4.90;82.30;;;;;;4957882;28;20297;-77
2024/01/29 05:27:01;;;;;;;4.63;3.72;;;4.90;82.30;;;;;;4968307;28;20031;-82
2024/01/29 05:29:27;;;;;;;5.57;4.30;;;4.90;82.30;;;;;;4957250;28;20073;-82
2024/01/29 05:31:52;;;;;;;5.25;3.90;;;4.90;82.30;;;;;;4958741;28;20049;-94
2024/01/29 05:34:18;;;;;;;5.53;4.13;;;4.90;82.20;;;;;;4970597;28;20461;-77
2024/01/29 05:36:44;;;;;;;5.22;4.13;;;4.90;82.30;;;;;;4985009;28;20101;-77
2024/01/29 05:39:10;;;;;;;5.82;4.25;;;4.90;82.30;;;;;;4971719;28;20029;-81
2024/01/29 05:41:35;;;;;;;4.93;3.70;;;4.80;82.20;;;;;;4956102;28;20034;-82
2024/01/29 05:44:01;;;;;;;4.70;3.28;;;4.90;82.40;;;;;;4972705;28;20113;-81
2024/01/29 05:46:27;;;;;;;5.68;4.22;;;4.80;82.30;;;;;;4956244;28;20661;-82
2024/01/29 05:48:52;;;;;;;6.18;4.40;;;4.80;82.30;;;;;;4952019;28;20034;-81
2024/01/29 05:51:20;;;;;;;5.18;4.07;;;4.80;82.30;;;;;;4971321;28;20057;-82
2024/01/29 05:53:45;;;;;;;5.38;3.90;;;4.80;82.30;;;;;;4945455;28;20538;-82
2024/01/29 05:56:11;;;;;;;5.90;3.90;;;4.80;82.30;;;;;;4951676;28;20449;-93
2024/01/29 05:58:37;;;;;;;5.07;3.95;;;4.80;82.90;;;;;;4965765;28;20399;-93
2024/01/29 06:01:03;;;;;;;6.05;4.38;;;4.80;82.30;;;;;;4955621;28;20506;-95
2024/01/29 06:03:29;;;;;;;5.20;3.88;;;4.80;82.40;;;;;;4965417;28;20162;-82
2024/01/29 06:05:55;;;;;;;5.00;3.60;;;4.70;82.40;;;;;;4964492;28;20084;-81
2024/01/29 06:08:23;;;;;;;4.80;3.90;;;4.70;82.40;;;;;;4946989;28;20047;-77
2024/01/29 06:10:50;;;;;;;5.32;4.00;;;4.70;82.30;;;;;;4948946;28;20063;-82
2024/01/29 06:13:15;;;;;;;5.35;3.67;;;4.80;82.40;;;;;;4967272;28;20045;-77
2024/01/29 06:15:41;;;;;;;5.05;3.70;;;4.70;82.30;;;;;;4952340;28;20106;-83
2024/01/29 06:18:07;;;;;;;4.82;3.88;;;4.70;82.30;;;;;;4966334;28;20170;-76
2024/01/29 06:20:33;;;;;;;5.18;3.97;;;4.70;82.30;;;;;;4950934;28;21243;-82
2024/01/29 06:22:58;;;;;;;4.93;3.80;;;4.70;82.40;;;;;;4965760;28;20026;-76
2024/01/29 06:25:24;;;;;;;6.28;4.03;;;4.70;82.30;;;;;;4949099;28;20130;-83
2024/01/29 06:27:50;;;;;;;5.03;3.78;;;4.70;83.00;;;;;;4954016;28;20023;-82
2024/01/29 06:30:15;;;;;;;5.32;3.95;;;4.70;82.40;;;;;;4968268;28;20027;-82
2024/01/29 06:32:41;;;;;;;5.13;3.90;;;4.70;82.40;;;;;;4953347;28;20118;-86
2024/01/29 06:35:08;;;;;;;5.30;4.15;;;4.70;82.40;;;;;;4954530;28;20023;-83
2024/01/29 06:37:34;;;;;;;5.07;3.90;;;4.70;82.30;;;;;;4949708;28;20077;-84
2024/01/29 06:40:00;;;;;;;4.40;3.67;;;4.70;82.40;;;;;;4979110;28;20515;-83
2024/01/29 06:42:26;;;;;;;5.78;3.97;;;4.60;82.30;;;;;;4970172;28;20565;-83
2024/01/29 06:44:52;;;;;;;5.30;3.88;;;4.70;82.30;;;;;;4953356;28;20065;-90
2024/01/29 06:47:18;;;;;;;4.20;3.35;;;4.60;82.20;;;;;;4965582;28;20031;-78
2024/01/29 06:49:44;;;;;;;4.75;3.63;;;4.70;82.30;;;;;;4968936;28;20057;-83
2024/01/29 06:52:09;;;;;;;4.43;3.50;;;4.70;82.30;;;;;;4952603;28;20043;-89
2024/01/29 06:54:35;;;;;;;5.47;3.80;;;4.60;82.20;;;;;;4965395;28;20434;-93
2024/01/29 06:57:01;;;;;;;4.70;3.60;;;4.70;82.30;;;;;;4947157;28;20033;-90
2024/01/29 06:59:27;;;;;;;4.70;3.65;;;4.70;82.30;;;;;;4968754;28;20479;-84
2024/01/29 07:01:58;;;;;;;4.78;3.70;;;4.70;82.30;;;;;;4963545;28;20695;-90
2024/01/29 07:04:24;;;;;;;4.95;3.92;;;4.70;82.30;;;;;;4967044;28;20088;-86
2024/01/29 07:06:49;;;;;;;5.18;3.78;;;4.70;82.20;;;;;;4952015;28;20110;-78
2024/01/29 07:09:16;;;;;;;4.60;3.58;;;4.70;82.20;;;;;;4951820;28;20023;-81
2024/01/29 07:11:42;;;;;;;4.50;3.42;;;4.70;82.30;;;;;;4962632;28;20061;-90
2024/01/29 07:14:07;;;;;;;4.43;3.53;;;4.70;82.20;;;;;;4971342;28;20019;-84
2024/01/29 07:16:33;;;;;;;5.57;3.80;;;4.70;82.30;;;;;;4943254;28;20063;-91
2024/01/29 07:18:59;;;;;;;4.45;3.60;;;4.70;82.30;;;;;;4972608;28;20176;-83
2024/01/29 07:21:24;;;;;;;4.35;3.17;;;4.70;82.30;;;;;;4956059;28;20026;-77
2024/01/29 07:23:50;;;;;;;4.75;3.78;;;4.70;82.30;;;;;;4966298;28;20031;-77
2024/01/29 07:26:16;;;;;;;4.05;3.30;;;4.70;82.30;;;;;;4948583;28;20023;-81
2024/01/29 07:28:42;;;;;;;4.40;3.45;;;4.70;82.30;;;;;;4957059;28;20029;-92
2024/01/29 07:31:07;;;;;;;4.30;3.38;;;4.70;82.30;;;;;;4959323;28;20430;-91
2024/01/29 07:33:33;;;;;;;4.20;3.35;;;4.70;82.30;;;;;;4968406;28;20027;-92
2024/01/29 07:36:00;;;;;;;3.67;2.92;;;4.70;82.30;;;;;;4970326;28;20023;-82
2024/01/29 07:38:26;;;;;;;3.83;3.22;;;4.70;82.30;;;;;;4969079;28;20239;-88
2024/01/29 07:40:52;;;;;;;4.72;3.50;;;4.70;82.30;;;;;;4956109;28;20071;-82
2024/01/29 07:43:18;;;;;;;4.72;3.70;;;4.70;82.30;;;;;;4965821;28;20031;-82
2024/01/29 07:45:44;;;;;;;4.95;3.60;;;4.70;82.30;;;;;;4963806;28;20031;-77
2024/01/29 07:48:10;;;;;;;4.10;3.30;;;4.70;82.30;;;;;;4959734;28;20038;-82
2024/01/29 07:50:36;;;;;;;4.70;3.20;;;4.70;82.30;;;;;;4972146;28;20089;-91
2024/01/29 07:53:02;;;;;;;4.07;3.30;;;4.70;82.90;;;;;;4974269;28;20042;-81
2024/01/29 07:55:28;;;;;;;3.85;3.22;;;4.70;82.30;;;;;;4975201;28;20031;-83
2024/01/29 07:57:54;;;;;;;4.35;3.38;;;4.70;82.30;;;;;;4972941;28;20030;-82
2024/01/29 08:00:20;;;;;;;4.57;3.03;;;4.70;82.30;;;;;;4965742;28;20037;-81
2024/01/29 08:02:45;;;;;;;4.90;3.38;;;4.70;82.30;;;;;;4987332;28;20041;-82
2024/01/29 08:05:14;;;;;;;5.68;3.72;;;4.70;82.30;;;;;;4958240;28;20031;-77
2024/01/29 08:07:40;;;;;;;4.25;3.35;;;4.70;82.30;;;;;;4962266;28;20031;-82
2024/01/29 08:10:06;;;;;;;5.57;4.03;;;4.70;82.30;;;;;;4978341;28;20030;-91
2024/01/29 08:12:32;;;;;;;4.85;3.63;;;4.70;82.20;;;;;;4975761;28;20038;-86
2024/01/29 08:14:57;;;;;;;4.70;3.45;;;4.70;82.30;;;;;;4959125;28;20033;-81
2024/01/29 08:17:23;;;;;;;4.57;3.20;;;4.80;82.30;;;;;;4974279;28;20096;-77
2024/01/29 08:19:49;;;;;;;4.70;3.40;;;4.70;82.30;;;;;;4954007;28;20077;-79
2024/01/29 08:22:15;;;;;;;4.78;3.40;;;4.80;82.90;;;;;;4954973;28;20041;-91
2024/01/29 08:24:40;;;;;;;4.28;3.22;;;4.80;82.30;;;;;;4961833;28;20126;-91
2024/01/29 08:27:06;;;;;;;5.00;3.60;;;4.80;82.30;;;;;;4978771;28;20034;-91
2024/01/29 08:29:32;;;;;;;5.05;3.65;;;4.80;82.30;;;;;;4974991;28;20055;-81
2024/01/29 08:31:58;;;;;;;4.32;3.42;;;4.80;82.20;;;;;;4977008;28;20034;-79
2024/01/29 08:34:25;;;;;;;5.60;3.78;;;4.80;82.30;;;;;;4984058;28;20026;-88
2024/01/29 08:36:51;;;;;;;4.40;3.28;;;4.80;82.20;;;;;;4963083;28;20034;-82
2024/01/29 08:39:17;;;;;;;4.10;3.30;;;4.90;82.30;;;;;;4984681;28;20037;-93
2024/01/29 08:41:43;;;;;;;5.65;3.15;;;4.90;82.30;;;;;;4981361;28;20025;-78
2024/01/29 08:44:10;;;;;;;3.83;3.20;;;4.90;82.20;;;;;;4965353;28;20038;-77
2024/01/29 08:46:36;;;;;;;4.30;3.60;;;4.90;82.20;;;;;;4976441;28;20023;-80
2024/01/29 08:49:02;;;;;;;4.97;3.47;;;4.90;82.20;;;;;;4966335;28;20037;-81
2024/01/29 08:51:28;;;;;;;4.07;3.20;;;4.90;82.20;;;;;;4960568;28;20527;-93
2024/01/29 08:53:54;;;;;;;4.90;3.50;;;5.00;82.20;;;;;;4958118;28;20465;-90
2024/01/29 08:56:20;;;;;;;4.47;3.60;;;5.00;82.20;;;;;;4976473;28;20058;-83
2024/01/29 08:58:45;;;;;;;5.63;3.70;;;5.00;82.20;;;;;;4974285;28;20053;-83
2024/01/29 09:01:11;;;;;;;4.57;3.60;;;5.00;82.20;;;;;;4963549;28;20018;-83
2024/01/29 09:03:37;;;;;;;6.47;3.90;;;5.00;82.20;;;;;;4955911;28;20038;-77
2024/01/29 09:06:03;;;;;;;4.95;3.90;;;5.10;82.20;;;;;;4984763;28;20037;-83
2024/01/29 09:08:29;;;;;;;4.95;3.55;;;5.10;82.20;;;;;;4962451;28;20058;-88
2024/01/29 09:10:55;;;;;;;5.75;3.67;;;5.10;82.20;;;;;;4991743;28;20042;-76
2024/01/29 09:13:20;;;;;;;4.93;3.50;;;5.10;82.20;;;;;;4960851;28;20510;-82
2024/01/29 09:15:46;;;;;;;5.40;3.78;;;5.20;82.20;;;;;;4962741;28;20034;-94
2024/01/29 09:18:12;;;;;;;6.07;4.13;;;5.20;82.20;;;;;;4956973;28;20022;-82
2024/01/29 09:20:38;;;;;;;4.70;3.53;;;5.20;82.20;;;;;;4958732;28;20037;-82
2024/01/29 09:23:04;;;;;;;4.90;3.90;;;5.20;82.20;;;;;;4976734;28;20486;-88
2024/01/29 09:25:29;;;;;;;4.70;3.65;;;5.30;82.20;;;;;;4987293;28;20026;-81
2024/01/29 09:27:55;;;;;;;5.10;3.92;;;5.30;82.20;;;;;;4954478;28;20172;-90
2024/01/29 09:30:21;;;;;;;5.28;3.80;;;5.30;82.10;;;;;;4974558;28;20054;-92
2024/01/29 09:32:47;;;;;;;6.13;4.22;;;5.40;82.20;;;;;;4969184;28;20027;-81
2024/01/29 09:35:13;;;;;;;5.25;3.50;;;5.30;82.10;;;;;;4972612;28;20447;-83
2024/01/29 09:37:41;;;;;;;5.25;3.97;;;5.40;82.20;;;;;;4960644;28;20054;-82
2024/01/29 09:40:14;;;;;;;5.68;4.35;;;5.40;82.10;;;;;;4973996;28;20050;-81
2024/01/29 09:42:49;;;;;;;5.28;3.67;;;5.50;82.20;;;;;;4985959;28;20491;-82
2024/01/29 09:45:22;;;;;;;4.88;3.65;;;5.50;82.20;;;;;;4970726;28;20046;-82
2024/01/29 09:47:51;;;;;;;5.35;3.90;;;5.50;82.10;;;;;;4977860;28;20514;-94
2024/01/29 09:50:17;;;;;;;5.88;4.22;;;5.50;82.10;;;;;;4958771;28;20181;-77
2024/01/29 09:52:45;;;;;;;5.00;3.80;;;5.60;82.10;;;;;;4976259;28;20031;-82
2024/01/29 09:55:11;;;;;;;5.07;3.58;;;5.60;82.10;;;;;;4973723;28;20038;-81
2024/01/29 09:57:38;;;;;;;4.78;3.67;;;5.60;82.10;;;;;;4976375;28;20069;-93
2024/01/29 10:00:05;;;;;;;5.40;4.07;;;5.70;82.10;;;;;;4983756;28;20038;-84
2024/01/29 10:02:36;;;;;;;5.32;4.10;;;5.70;82.00;;;;;;4967401;28;20150;-83
2024/01/29 10:05:08;;;;;;;5.60;4.07;;;5.80;82.10;;;;;;4969025;28;20455;-77
2024/01/29 10:07:34;;;;;;;4.78;3.72;;;5.80;82.00;;;;;;4961086;28;20293;-94
2024/01/29 10:10:08;;;;;;;5.32;4.10;;;5.80;81.90;;;;;;4949118;28;20544;-77
2024/01/29 10:12:34;;;;;;;6.03;3.92;;;5.90;82.00;;;;;;4953385;28;20069;-81
2024/01/29 10:14:59;;;;;;;5.93;3.95;;;5.90;81.90;;;;;;4975308;28;20033;-77
2024/01/29 10:17:25;;;;;;;5.80;4.05;;;5.90;81.90;;;;;;4958887;28;20061;-77
2024/01/29 10:19:51;;;;;;;5.28;4.25;;;6.00;81.90;;;;;;4956807;28;20022;-77
2024/01/29 10:22:17;;;;;;;5.30;4.10;;;6.00;81.90;;;;;;4970440;28;20037;-94
2024/01/29 10:24:44;;;;;;;5.07;3.90;;;6.10;81.90;;;;;;4975790;28;20022;-93
2024/01/29 10:27:09;;;;;;;5.53;4.30;;;6.10;81.80;;;;;;4974866;28;20036;-92
2024/01/29 10:29:47;;;;;;;4.88;4.03;;;6.10;81.80;;;;;;4985204;28;20027;-83
2024/01/29 10:32:12;;;;;;;5.55;4.13;;;6.20;81.80;;;;;;4958771;28;20034;-77
2024/01/29 10:34:38;;;;;;;6.32;4.47;;;6.20;81.70;;;;;;4972170;28;20023;-77
2024/01/29 10:37:06;;;;;;;5.20;4.20;;;6.20;81.70;;;;;;4966856;28;20120;-94
2024/01/29 10:39:34;;;;;;;4.93;3.90;;;6.30;81.80;;;;;;4972671;28;20025;-84
2024/01/29 10:42:02;;;;;;;5.30;4.00;;;6.40;81.80;;;;;;4954561;28;20053;-94
2024/01/29 10:44:34;;;;;;;5.22;4.10;;;6.40;81.80;;;;;;4958911;28;20027;-94
2024/01/29 10:47:03;;;;;;;6.72;5.00;;;6.40;81.80;;;;;;4974532;28;20092;-81
2024/01/29 10:49:31;;;;;;;6.60;4.32;;;6.40;81.70;;;;;;4977255;28;20553;-82
2024/01/29 10:51:58;;;;;;;6.07;4.38;;;6.50;81.70;;;;;;4973461;28;20061;-84
2024/01/29 10:54:24;;;;;;;6.70;4.50;;;6.50;81.70;;;;;;4970626;28;20050;-78
2024/01/29 10:56:51;;;;;;;6.22;4.47;;;6.60;81.80;;;;;;4967678;28;20024;-84
2024/01/29 10:59:20;;;;;;;5.95;4.28;;;6.60;81.80;;;;;;4970915;28;20082;-82
2024/01/29 11:01:47;;;;;;;6.15;4.47;;;6.60;81.80;;;;;;4949978;28;20405;-82
2024/01/29 11:04:16;;;;;;;5.55;4.70;;;6.70;81.80;;;;;;4968719;28;20031;-78
2024/01/29 11:06:49;;;;;;;6.20;4.55;;;6.70;81.80;;;;;;4965224;28;20046;-95
2024/01/29 11:09:19;;;;;;;5.68;4.35;;;6.70;81.80;;;;;;4971732;28;20047;-82
2024/01/29 11:11:46;;;;;;;6.72;4.78;;;6.70;81.80;;;;;;4946785;28;20046;-78
2024/01/29 11:14:12;;;;;;;5.32;4.32;;;6.80;81.90;;;;;;4972316;28;20026;-84
2024/01/29 11:16:39;;;;;;;7.22;5.18;;;6.80;81.90;;;;;;4965108;28;20027;-83
2024/01/29 11:19:05;;;;;;;6.18;4.72;;;6.80;81.90;;;;;;4954743;28;20031;-78
2024/01/29 11:21:34;;;;;;;6.40;4.68;;;6.90;81.90;;;;;;4946167;28;20041;-84
2024/01/29 11:23:59;;;;;;;7.07;4.75;;;6.90;81.90;;;;;;4967135;28;20055;-78
2024/01/29 11:26:25;;;;;;;6.00;4.50;;;6.90;81.90;;;;;;4963388;28;20074;-94
2024/01/29 11:29:02;;;;;;;6.10;4.82;;;7.00;82.00;;;;;;4972110;28;20027;-88
2024/01/29 11:31:45;;;;;;;6.45;5.05;;;7.00;82.00;;;;;;4978280;28;20039;-84
2024/01/29 11:34:15;;;;;;;5.72;4.57;;;7.10;82.10;;;;;;4973354;28;20110;-96
2024/01/29 11:39:29;;;;;;;5.45;4.43;;;7.10;82.10;;;;;;5685408;23;20150;-82
2024/01/29 11:41:56;;;;;;;5.78;4.82;;;7.20;82.00;;;;;;4931635;29;20566;-83
2024/01/29 11:44:23;;;;;;;7.15;4.88;;;7.20;82.10;;;;;;5328115;23;20054;-84
2024/01/29 11:46:49;;;;;;;7.03;5.20;;;7.20;82.10;;;;;;4975904;28;20050;-84
2024/01/29 11:49:25;;;;;;;6.35;4.82;;;7.30;82.10;;;;;;4974920;28;20026;-82
2024/01/29 11:51:53;;;;;;;7.47;5.40;;;7.30;82.20;;;;;;4974808;28;20450;-92
2024/01/29 11:54:21;;;;;;;6.50;5.43;;;7.30;82.10;;;;;;4976351;28;20033;-95
2024/01/29 11:56:47;;;;;;;6.78;5.10;;;7.40;82.20;;;;;;4980134;28;20022;-92
2024/01/29 11:59:13;;;;;;;6.93;5.32;;;7.40;82.20;;;;;;4969800;28;20089;-93
2024/01/29 12:01:39;;;;;;;7.78;5.47;;;7.50;82.20;;;;;;4979631;28;20058;-92
2024/01/29 12:04:05;;;;;;;8.20;6.00;;;7.50;82.20;;;;;;4974676;28;20026;-84
2024/01/29 12:06:34;;;;;;;6.78;5.28;;;7.60;82.40;;;;;;4957489;28;20034;-94
2024/01/29 12:09:00;;;;;;;6.88;5.57;;;7.60;82.30;;;;;;4964629;28;20072;-96
2024/01/29 12:11:26;;;;;;;7.05;5.20;;;7.60;82.30;;;;;;4989397;28;20042;-95
2024/01/29 12:13:55;;;;;;;7.95;5.13;;;7.70;82.30;;;;;;4954672;28;20018;-96
2024/01/29 12:16:23;;;;;;;6.35;4.93;;;7.70;82.30;;;;;;4978172;28;20027;-83
2024/01/29 12:18:49;;;;;;;7.60;5.82;;;7.80;82.30;;;;;;4958098;28;20026;-78
2024/01/29 12:21:15;;;;;;;7.32;5.68;;;7.80;82.30;;;;;;4973771;28;20371;-77
2024/01/29 12:23:44;;;;;;;7.40;5.47;;;7.90;82.40;;;;;;4976917;28;20027;-96
2024/01/29 12:26:12;;;;;;;7.35;5.80;;;7.90;82.40;;;;;;4971787;28;20023;-83
2024/01/29 12:28:39;;;;;;;7.50;5.63;;;7.90;82.40;;;;;;4979111;28;20049;-94
2024/01/29 12:31:07;;;;;;;7.00;5.28;;;8.00;82.40;;;;;;4978458;28;20109;-82
2024/01/29 12:33:35;;;;;;;7.00;5.68;;;8.00;82.40;;;;;;4994753;28;20069;-83
2024/01/29 12:36:12;;;;;;;7.50;5.70;;;8.10;82.40;;;;;;4975481;28;20126;-79
2024/01/29 12:38:43;;;;;;;6.47;5.18;;;8.10;82.50;;;;;;4959730;28;20175;-83
2024/01/29 12:41:10;;;;;;;6.95;5.40;;;8.20;82.40;;;;;;4980088;28;20097;-84
2024/01/29 12:43:36;;;;;;;8.18;6.03;;;8.20;82.40;;;;;;4964185;28;20029;-96
2024/01/29 12:46:09;;;;;;;6.80;5.15;;;8.30;82.50;;;;;;4977977;28;20050;-82
2024/01/29 12:48:35;;;;;;;6.88;5.28;;;8.30;82.50;;;;;;4963850;28;20044;-83
2024/01/29 12:51:01;;;;;;;7.45;6.10;;;8.40;82.50;;;;;;4958302;28;20109;-78
2024/01/29 12:53:27;;;;;;;6.72;5.47;;;8.40;82.50;;;;;;4957375;28;20034;-78
2024/01/29 12:55:53;;;;;;;7.95;5.45;;;8.50;82.50;;;;;;4980304;28;20033;-94